Columbia City, OR

9:27 AM PDT on April 19, 2015 (GMT -0700)
Dillard's Moorage | | Change Station
CLOSE
Current Station
Personal Weather Station
Location: St Helens, OR
Elevation: 10 ft
Nearby Weather Stations

Elev 10 ft 45.87 °N, 122.80 °W | Updated 3 minutes ago

Clear
Clear
56.1 °F
Feels Like 56.1 °F
N
10.0
Wind Variable Wind from North
Gusts 14.0 mph

Today
High -- | Low -- °F
--% Chance of Precip.
Yesterday
High -- | Low -- °F
Precip. -- in
6:18 AM 8:03 PM
New Moon, 1% visible
Pressure 30.13 in
Visibility 10.0 miles
Clouds Clear
Dew Point 44 °F
Humidity 64%
Rainfall 0.00 in
Snow Depth Not available.
UV 2 out of 12
Pollen 10.50 out of 12
Air Quality Not available.
Flu Activity Regional
METAR KSPB 191553Z AUTO 01010KT 10SM CLR 14/05 A3013 RMK AO2 SLP203 T01390050

More Conditions Fewer Conditions

Pressure 30.13 in
Visibility 10.0 miles
Clouds Clear
Dew Point 44 °F
Humidity 64%
Rainfall 0.00 in
Snow Depth Not available.
UV 2 out of 12
Pollen 10.50 out of 12
Air Quality Not available.
Flu Activity Regional
METAR KSPB 191553Z AUTO 01010KT 10SM CLR 14/05 A3013 RMK AO2 SLP203 T01390050

More Conditions Fewer Conditions

10-Day Weather Forecast

Almanac

Astronomy

Apr. 19, 2015 Rise Set
Actual Time
Civil Twilight
Nautical Twilight
Astronomical Twilight
Moon
Length of Visible Light
Length of Day
Tomorrow will be .
, % of the Moon is Illuminated

Today's Extremes

State Highs State Lows

Community

WunderPhotos

Upload Photos

1,814,844 photos uploaded!

WunderBlogs® & News

Nearby

Air Quality

  Air Quality AQ Index Pollutant
Not available.

Snow Depth

Station Depth Elevation

Earthquake Activity

City Distance Mag. Time & Date
Minimum magnitude displayed is 2.5.

Coastal Water Temperatures

Place Temperature

Stations

Nearby Weather Stations

Station Location Temp. Windchill Dew Point Humidity Wind Precip. Elev Updated Type